sensor_id;sensor_type;location;lat;lon;timestamp;P1;durP1;ratioP1;P2;durP2;ratioP2
8675;SDS011;4375;52.486;13.424;2024-03-02T00:02:10;72.63;;;35.70;;
8675;SDS011;4375;52.486;13.424;2024-03-02T00:04:36;75.63;;;38.77;;
8675;SDS011;4375;52.486;13.424;2024-03-02T00:07:02;73.07;;;36.63;;
8675;SDS011;4375;52.486;13.424;2024-03-02T00:09:29;79.43;;;36.73;;
8675;SDS011;4375;52.486;13.424;2024-03-02T00:11:55;70.90;;;37.23;;
8675;SDS011;4375;52.486;13.424;2024-03-02T00:14:21;68.23;;;36.23;;
8675;SDS011;4375;52.486;13.424;2024-03-02T00:16:49;68.43;;;34.97;;
8675;SDS011;4375;52.486;13.424;2024-03-02T00:19:16;75.60;;;36.53;;
8675;SDS011;4375;52.486;13.424;2024-03-02T00:21:42;71.60;;;35.90;;
8675;SDS011;4375;52.486;13.424;2024-03-02T00:24:12;76.07;;;35.73;;
8675;SDS011;4375;52.486;13.424;2024-03-02T00:26:49;87.97;;;37.07;;
8675;SDS011;4375;52.486;13.424;2024-03-02T00:29:15;70.27;;;35.77;;
8675;SDS011;4375;52.486;13.424;2024-03-02T00:31:44;70.70;;;37.03;;
8675;SDS011;4375;52.486;13.424;2024-03-02T00:34:09;70.07;;;35.27;;
8675;SDS011;4375;52.486;13.424;2024-03-02T00:36:38;67.47;;;33.60;;
8675;SDS011;4375;52.486;13.424;2024-03-02T00:39:04;77.63;;;36.73;;
8675;SDS011;4375;52.486;13.424;2024-03-02T00:41:32;72.67;;;36.03;;
8675;SDS011;4375;52.486;13.424;2024-03-02T00:44:02;72.07;;;35.53;;
8675;SDS011;4375;52.486;13.424;2024-03-02T00:46:37;76.47;;;36.60;;
8675;SDS011;4375;52.486;13.424;2024-03-02T00:49:04;76.70;;;38.60;;
8675;SDS011;4375;52.486;13.424;2024-03-02T00:51:45;76.83;;;38.77;;
8675;SDS011;4375;52.486;13.424;2024-03-02T00:54:13;76.33;;;37.23;;
8675;SDS011;4375;52.486;13.424;2024-03-02T00:56:40;76.70;;;37.50;;
8675;SDS011;4375;52.486;13.424;2024-03-02T00:59:06;81.37;;;38.40;;
8675;SDS011;4375;52.486;13.424;2024-03-02T01:01:34;73.47;;;35.87;;
8675;SDS011;4375;52.486;13.424;2024-03-02T01:03:59;74.43;;;37.13;;
8675;SDS011;4375;52.486;13.424;2024-03-02T01:06:25;80.17;;;38.80;;
8675;SDS011;4375;52.486;13.424;2024-03-02T01:08:51;79.27;;;38.13;;
8675;SDS011;4375;52.486;13.424;2024-03-02T01:11:16;66.33;;;36.40;;
8675;SDS011;4375;52.486;13.424;2024-03-02T01:13:43;69.53;;;37.97;;
8675;SDS011;4375;52.486;13.424;2024-03-02T01:16:10;80.90;;;40.80;;
8675;SDS011;4375;52.486;13.424;2024-03-02T01:18:35;80.90;;;38.57;;
8675;SDS011;4375;52.486;13.424;2024-03-02T01:21:01;82.80;;;40.50;;
8675;SDS011;4375;52.486;13.424;2024-03-02T01:23:27;77.53;;;38.70;;
8675;SDS011;4375;52.486;13.424;2024-03-02T01:25:52;72.03;;;37.50;;
8675;SDS011;4375;52.486;13.424;2024-03-02T01:28:18;70.80;;;37.83;;
8675;SDS011;4375;52.486;13.424;2024-03-02T01:30:44;77.00;;;39.00;;
8675;SDS011;4375;52.486;13.424;2024-03-02T01:33:10;85.77;;;41.63;;
8675;SDS011;4375;52.486;13.424;2024-03-02T01:35:35;75.97;;;38.37;;
8675;SDS011;4375;52.486;13.424;2024-03-02T01:38:02;86.33;;;41.37;;
8675;SDS011;4375;52.486;13.424;2024-03-02T01:40:28;79.53;;;39.53;;
8675;SDS011;4375;52.486;13.424;2024-03-02T01:42:54;83.70;;;40.47;;
8675;SDS011;4375;52.486;13.424;2024-03-02T01:45:20;81.67;;;38.57;;
8675;SDS011;4375;52.486;13.424;2024-03-02T01:47:47;74.70;;;38.27;;
8675;SDS011;4375;52.486;13.424;2024-03-02T01:50:12;84.93;;;40.30;;
8675;SDS011;4375;52.486;13.424;2024-03-02T01:52:39;74.30;;;37.77;;
8675;SDS011;4375;52.486;13.424;2024-03-02T01:55:04;78.43;;;37.20;;
8675;SDS011;4375;52.486;13.424;2024-03-02T01:57:34;75.70;;;36.87;;
8675;SDS011;4375;52.486;13.424;2024-03-02T02:00:00;87.23;;;41.97;;
8675;SDS011;4375;52.486;13.424;2024-03-02T02:02:25;84.73;;;39.40;;
8675;SDS011;4375;52.486;13.424;2024-03-02T02:04:51;75.37;;;36.37;;
8675;SDS011;4375;52.486;13.424;2024-03-02T02:07:17;80.77;;;40.00;;
8675;SDS011;4375;52.486;13.424;2024-03-02T02:09:43;76.30;;;39.87;;
8675;SDS011;4375;52.486;13.424;2024-03-02T02:12:09;74.20;;;37.97;;
8675;SDS011;4375;52.486;13.424;2024-03-02T02:14:35;77.53;;;37.70;;
8675;SDS011;4375;52.486;13.424;2024-03-02T02:17:01;81.00;;;39.83;;
8675;SDS011;4375;52.486;13.424;2024-03-02T02:19:27;75.27;;;39.40;;
8675;SDS011;4375;52.486;13.424;2024-03-02T02:21:53;77.10;;;39.27;;
8675;SDS011;4375;52.486;13.424;2024-03-02T02:24:19;74.70;;;38.83;;
8675;SDS011;4375;52.486;13.424;2024-03-02T02:26:45;75.40;;;38.37;;
8675;SDS011;4375;52.486;13.424;2024-03-02T02:29:10;75.60;;;39.23;;
8675;SDS011;4375;52.486;13.424;2024-03-02T02:31:37;77.87;;;42.33;;
8675;SDS011;4375;52.486;13.424;2024-03-02T02:34:06;82.53;;;38.30;;
8675;SDS011;4375;52.486;13.424;2024-03-02T02:36:35;73.87;;;38.13;;
8675;SDS011;4375;52.486;13.424;2024-03-02T02:39:05;78.43;;;38.87;;
8675;SDS011;4375;52.486;13.424;2024-03-02T02:41:32;79.30;;;37.77;;
8675;SDS011;4375;52.486;13.424;2024-03-02T02:43:58;74.23;;;37.60;;
8675;SDS011;4375;52.486;13.424;2024-03-02T02:46:23;83.70;;;39.40;;
8675;SDS011;4375;52.486;13.424;2024-03-02T02:48:49;79.33;;;40.70;;
8675;SDS011;4375;52.486;13.424;2024-03-02T02:51:16;80.67;;;41.43;;
8675;SDS011;4375;52.486;13.424;2024-03-02T02:53:42;76.30;;;41.67;;
8675;SDS011;4375;52.486;13.424;2024-03-02T02:56:08;76.87;;;39.20;;
8675;SDS011;4375;52.486;13.424;2024-03-02T02:58:33;79.40;;;42.57;;
8675;SDS011;4375;52.486;13.424;2024-03-02T03:00:59;91.23;;;41.67;;
8675;SDS011;4375;52.486;13.424;2024-03-02T03:03:25;89.30;;;40.43;;
8675;SDS011;4375;52.486;13.424;2024-03-02T03:05:50;83.60;;;42.00;;
8675;SDS011;4375;52.486;13.424;2024-03-02T03:08:16;89.27;;;39.83;;
8675;SDS011;4375;52.486;13.424;2024-03-02T03:10:42;87.90;;;41.50;;
8675;SDS011;4375;52.486;13.424;2024-03-02T03:13:07;83.73;;;40.37;;
8675;SDS011;4375;52.486;13.424;2024-03-02T03:15:37;82.87;;;40.23;;
8675;SDS011;4375;52.486;13.424;2024-03-02T03:18:05;80.93;;;39.70;;
8675;SDS011;4375;52.486;13.424;2024-03-02T03:20:32;79.37;;;41.93;;
8675;SDS011;4375;52.486;13.424;2024-03-02T03:22:58;79.20;;;40.67;;
8675;SDS011;4375;52.486;13.424;2024-03-02T03:25:25;79.93;;;40.13;;
8675;SDS011;4375;52.486;13.424;2024-03-02T03:27:51;79.67;;;39.07;;
8675;SDS011;4375;52.486;13.424;2024-03-02T03:30:17;78.60;;;38.43;;
8675;SDS011;4375;52.486;13.424;2024-03-02T03:32:43;81.33;;;37.00;;
8675;SDS011;4375;52.486;13.424;2024-03-02T03:35:09;83.27;;;38.13;;
8675;SDS011;4375;52.486;13.424;2024-03-02T03:37:34;74.00;;;37.97;;
8675;SDS011;4375;52.486;13.424;2024-03-02T03:40:00;74.10;;;36.50;;
8675;SDS011;4375;52.486;13.424;2024-03-02T03:42:38;69.20;;;36.87;;
8675;SDS011;4375;52.486;13.424;2024-03-02T03:45:04;82.73;;;36.80;;
8675;SDS011;4375;52.486;13.424;2024-03-02T03:47:33;73.57;;;37.07;;
8675;SDS011;4375;52.486;13.424;2024-03-02T03:49:59;73.73;;;36.40;;
8675;SDS011;4375;52.486;13.424;2024-03-02T03:52:24;68.47;;;36.00;;
8675;SDS011;4375;52.486;13.424;2024-03-02T03:54:50;66.23;;;36.10;;
8675;SDS011;4375;52.486;13.424;2024-03-02T03:57:16;75.23;;;35.67;;
8675;SDS011;4375;52.486;13.424;2024-03-02T03:59:42;75.70;;;36.57;;
8675;SDS011;4375;52.486;13.424;2024-03-02T04:02:08;80.93;;;35.77;;
8675;SDS011;4375;52.486;13.424;2024-03-02T04:04:34;72.87;;;34.47;;
8675;SDS011;4375;52.486;13.424;2024-03-02T04:07:00;71.87;;;35.67;;
8675;SDS011;4375;52.486;13.424;2024-03-02T04:09:26;69.30;;;35.37;;
8675;SDS011;4375;52.486;13.424;2024-03-02T04:11:52;62.93;;;33.20;;
8675;SDS011;4375;52.486;13.424;2024-03-02T04:14:18;64.00;;;33.70;;
8675;SDS011;4375;52.486;13.424;2024-03-02T04:16:44;78.03;;;32.90;;
8675;SDS011;4375;52.486;13.424;2024-03-02T04:19:12;66.50;;;33.90;;
8675;SDS011;4375;52.486;13.424;2024-03-02T04:21:37;68.20;;;34.20;;
8675;SDS011;4375;52.486;13.424;2024-03-02T04:24:03;72.50;;;35.10;;
8675;SDS011;4375;52.486;13.424;2024-03-02T04:26:29;59.67;;;31.50;;
8675;SDS011;4375;52.486;13.424;2024-03-02T04:28:54;61.23;;;32.23;;
8675;SDS011;4375;52.486;13.424;2024-03-02T04:31:20;68.20;;;33.10;;
8675;SDS011;4375;52.486;13.424;2024-03-02T04:33:46;64.37;;;32.70;;
8675;SDS011;4375;52.486;13.424;2024-03-02T04:36:12;60.83;;;31.30;;
8675;SDS011;4375;52.486;13.424;2024-03-02T04:38:38;64.80;;;32.73;;
8675;SDS011;4375;52.486;13.424;2024-03-02T04:41:04;62.23;;;30.27;;
8675;SDS011;4375;52.486;13.424;2024-03-02T04:43:33;64.53;;;31.70;;
8675;SDS011;4375;52.486;13.424;2024-03-02T04:45:59;65.13;;;33.40;;
8675;SDS011;4375;52.486;13.424;2024-03-02T04:48:25;58.80;;;30.90;;
8675;SDS011;4375;52.486;13.424;2024-03-02T04:50:50;67.17;;;32.70;;
8675;SDS011;4375;52.486;13.424;2024-03-02T04:53:16;63.10;;;31.50;;
8675;SDS011;4375;52.486;13.424;2024-03-02T04:55:42;61.80;;;31.17;;
8675;SDS011;4375;52.486;13.424;2024-03-02T04:58:08;58.97;;;31.57;;
8675;SDS011;4375;52.486;13.424;2024-03-02T05:00:34;63.07;;;31.97;;
8675;SDS011;4375;52.486;13.424;2024-03-02T05:02:59;61.20;;;30.87;;
8675;SDS011;4375;52.486;13.424;2024-03-02T05:05:26;62.87;;;32.23;;
8675;SDS011;4375;52.486;13.424;2024-03-02T05:07:54;62.80;;;31.20;;
8675;SDS011;4375;52.486;13.424;2024-03-02T05:10:20;61.33;;;30.97;;
8675;SDS011;4375;52.486;13.424;2024-03-02T05:12:45;58.73;;;29.90;;
8675;SDS011;4375;52.486;13.424;2024-03-02T05:15:11;60.83;;;31.70;;
8675;SDS011;4375;52.486;13.424;2024-03-02T05:17:41;59.03;;;30.00;;
8675;SDS011;4375;52.486;13.424;2024-03-02T05:20:10;56.67;;;29.70;;
8675;SDS011;4375;52.486;13.424;2024-03-02T05:22:36;55.60;;;28.73;;
8675;SDS011;4375;52.486;13.424;2024-03-02T05:25:03;58.87;;;29.13;;
8675;SDS011;4375;52.486;13.424;2024-03-02T05:27:29;58.23;;;30.73;;
8675;SDS011;4375;52.486;13.424;2024-03-02T05:29:55;58.30;;;29.77;;
8675;SDS011;4375;52.486;13.424;2024-03-02T05:32:21;55.40;;;30.73;;
8675;SDS011;4375;52.486;13.424;2024-03-02T05:34:46;58.30;;;29.70;;
8675;SDS011;4375;52.486;13.424;2024-03-02T05:37:12;61.67;;;30.30;;
8675;SDS011;4375;52.486;13.424;2024-03-02T05:39:38;60.87;;;30.70;;
8675;SDS011;4375;52.486;13.424;2024-03-02T05:42:03;63.80;;;31.10;;
8675;SDS011;4375;52.486;13.424;2024-03-02T05:44:29;61.80;;;30.93;;
8675;SDS011;4375;52.486;13.424;2024-03-02T05:46:55;71.67;;;31.27;;
8675;SDS011;4375;52.486;13.424;2024-03-02T05:49:21;59.63;;;32.70;;
8675;SDS011;4375;52.486;13.424;2024-03-02T05:51:47;65.80;;;34.40;;
8675;SDS011;4375;52.486;13.424;2024-03-02T05:54:12;60.60;;;33.30;;
8675;SDS011;4375;52.486;13.424;2024-03-02T05:56:41;68.20;;;33.87;;
8675;SDS011;4375;52.486;13.424;2024-03-02T05:59:06;62.17;;;32.70;;
8675;SDS011;4375;52.486;13.424;2024-03-02T06:01:44;66.43;;;33.80;;
8675;SDS011;4375;52.486;13.424;2024-03-02T06:04:17;65.20;;;32.00;;
8675;SDS011;4375;52.486;13.424;2024-03-02T06:06:42;72.60;;;33.97;;
8675;SDS011;4375;52.486;13.424;2024-03-02T06:09:08;68.47;;;33.37;;
8675;SDS011;4375;52.486;13.424;2024-03-02T06:11:37;61.30;;;35.07;;
8675;SDS011;4375;52.486;13.424;2024-03-02T06:14:04;72.73;;;34.20;;
8675;SDS011;4375;52.486;13.424;2024-03-02T06:16:30;66.53;;;34.03;;
8675;SDS011;4375;52.486;13.424;2024-03-02T06:18:58;58.17;;;32.17;;
8675;SDS011;4375;52.486;13.424;2024-03-02T06:21:24;65.80;;;32.60;;
8675;SDS011;4375;52.486;13.424;2024-03-02T06:23:50;68.67;;;32.00;;
8675;SDS011;4375;52.486;13.424;2024-03-02T06:26:16;72.07;;;32.80;;
8675;SDS011;4375;52.486;13.424;2024-03-02T06:28:46;67.60;;;32.53;;
8675;SDS011;4375;52.486;13.424;2024-03-02T06:31:11;65.17;;;33.43;;
8675;SDS011;4375;52.486;13.424;2024-03-02T06:33:37;69.67;;;33.50;;
8675;SDS011;4375;52.486;13.424;2024-03-02T06:36:03;69.80;;;34.70;;
8675;SDS011;4375;52.486;13.424;2024-03-02T06:38:29;67.03;;;35.50;;
8675;SDS011;4375;52.486;13.424;2024-03-02T06:40:57;66.50;;;34.47;;
8675;SDS011;4375;52.486;13.424;2024-03-02T06:43:22;69.17;;;35.13;;
8675;SDS011;4375;52.486;13.424;2024-03-02T06:45:50;69.97;;;33.53;;
8675;SDS011;4375;52.486;13.424;2024-03-02T06:48:43;63.67;;;31.70;;
8675;SDS011;4375;52.486;13.424;2024-03-02T06:51:58;68.73;;;33.57;;
8675;SDS011;4375;52.486;13.424;2024-03-02T06:55:01;74.30;;;35.83;;
8675;SDS011;4375;52.486;13.424;2024-03-02T07:01:15;70.50;;;33.17;;
8675;SDS011;4375;52.486;13.424;2024-03-02T07:03:55;76.83;;;36.07;;
8675;SDS011;4375;52.486;13.424;2024-03-02T07:07:11;79.53;;;36.07;;
8675;SDS011;4375;52.486;13.424;2024-03-02T07:09:51;70.80;;;34.57;;
8675;SDS011;4375;52.486;13.424;2024-03-02T07:12:50;67.40;;;35.30;;
8675;SDS011;4375;52.486;13.424;2024-03-02T07:15:24;71.57;;;36.03;;
8675;SDS011;4375;52.486;13.424;2024-03-02T07:24:15;74.67;;;35.03;;
8675;SDS011;4375;52.486;13.424;2024-03-02T07:29:52;76.30;;;36.70;;
8675;SDS011;4375;52.486;13.424;2024-03-02T07:32:31;67.33;;;33.77;;
8675;SDS011;4375;52.486;13.424;2024-03-02T07:35:04;77.37;;;37.27;;
8675;SDS011;4375;52.486;13.424;2024-03-02T07:46:21;65.10;;;33.23;;
8675;SDS011;4375;52.486;13.424;2024-03-02T07:48:49;75.77;;;36.83;;
8675;SDS011;4375;52.486;13.424;2024-03-02T07:51:20;68.53;;;35.20;;
8675;SDS011;4375;52.486;13.424;2024-03-02T07:54:06;67.20;;;34.07;;
8675;SDS011;4375;52.486;13.424;2024-03-02T07:56:50;67.63;;;33.67;;
8675;SDS011;4375;52.486;13.424;2024-03-02T07:59:51;64.80;;;33.87;;
8675;SDS011;4375;52.486;13.424;2024-03-02T08:02:37;68.87;;;33.67;;
8675;SDS011;4375;52.486;13.424;2024-03-02T08:05:09;74.63;;;32.80;;
8675;SDS011;4375;52.486;13.424;2024-03-02T08:08:05;67.37;;;32.77;;
8675;SDS011;4375;52.486;13.424;2024-03-02T08:10:36;74.23;;;33.90;;
8675;SDS011;4375;52.486;13.424;2024-03-02T08:13:32;73.83;;;33.43;;
8675;SDS011;4375;52.486;13.424;2024-03-02T08:16:08;62.13;;;31.30;;
8675;SDS011;4375;52.486;13.424;2024-03-02T08:22:04;71.30;;;35.10;;
8675;SDS011;4375;52.486;13.424;2024-03-02T08:24:55;73.07;;;33.83;;
8675;SDS011;4375;52.486;13.424;2024-03-02T08:27:43;63.00;;;32.33;;
8675;SDS011;4375;52.486;13.424;2024-03-02T08:30:37;65.43;;;33.70;;
8675;SDS011;4375;52.486;13.424;2024-03-02T08:33:24;65.73;;;32.13;;
8675;SDS011;4375;52.486;13.424;2024-03-02T08:36:07;63.37;;;31.60;;
8675;SDS011;4375;52.486;13.424;2024-03-02T08:38:43;61.83;;;29.97;;
8675;SDS011;4375;52.486;13.424;2024-03-02T08:41:14;64.27;;;30.83;;
8675;SDS011;4375;52.486;13.424;2024-03-02T08:44:06;65.83;;;32.90;;
8675;SDS011;4375;52.486;13.424;2024-03-02T08:46:36;62.10;;;31.63;;
8675;SDS011;4375;52.486;13.424;2024-03-02T08:49:02;61.30;;;29.90;;
8675;SDS011;4375;52.486;13.424;2024-03-02T08:51:28;67.10;;;31.63;;
8675;SDS011;4375;52.486;13.424;2024-03-02T08:53:53;64.20;;;31.87;;
8675;SDS011;4375;52.486;13.424;2024-03-02T08:56:19;59.67;;;31.27;;
8675;SDS011;4375;52.486;13.424;2024-03-02T08:58:46;58.77;;;29.83;;
8675;SDS011;4375;52.486;13.424;2024-03-02T09:01:12;62.33;;;32.40;;
8675;SDS011;4375;52.486;13.424;2024-03-02T09:03:38;63.07;;;31.07;;
8675;SDS011;4375;52.486;13.424;2024-03-02T09:06:03;63.27;;;30.63;;
8675;SDS011;4375;52.486;13.424;2024-03-02T09:08:29;68.37;;;32.40;;
8675;SDS011;4375;52.486;13.424;2024-03-02T09:10:55;66.20;;;31.70;;
8675;SDS011;4375;52.486;13.424;2024-03-02T09:13:21;70.00;;;31.40;;
8675;SDS011;4375;52.486;13.424;2024-03-02T09:15:47;67.87;;;32.10;;
8675;SDS011;4375;52.486;13.424;2024-03-02T09:18:13;72.30;;;32.80;;
8675;SDS011;4375;52.486;13.424;2024-03-02T09:20:38;62.93;;;31.77;;
8675;SDS011;4375;52.486;13.424;2024-03-02T09:23:04;59.17;;;31.77;;
8675;SDS011;4375;52.486;13.424;2024-03-02T09:25:30;62.47;;;30.87;;
8675;SDS011;4375;52.486;13.424;2024-03-02T09:27:55;58.90;;;30.30;;
8675;SDS011;4375;52.486;13.424;2024-03-02T09:30:21;58.67;;;31.47;;
8675;SDS011;4375;52.486;13.424;2024-03-02T09:32:47;59.23;;;30.67;;
8675;SDS011;4375;52.486;13.424;2024-03-02T09:35:12;62.03;;;30.00;;
8675;SDS011;4375;52.486;13.424;2024-03-02T09:37:38;70.93;;;32.13;;
8675;SDS011;4375;52.486;13.424;2024-03-02T09:40:04;57.50;;;29.53;;
8675;SDS011;4375;52.486;13.424;2024-03-02T09:42:31;61.13;;;31.27;;
8675;SDS011;4375;52.486;13.424;2024-03-02T09:44:57;60.17;;;30.07;;
8675;SDS011;4375;52.486;13.424;2024-03-02T09:47:24;60.57;;;29.10;;
8675;SDS011;4375;52.486;13.424;2024-03-02T09:49:49;60.30;;;30.37;;
8675;SDS011;4375;52.486;13.424;2024-03-02T09:52:15;56.20;;;29.20;;
8675;SDS011;4375;52.486;13.424;2024-03-02T09:54:41;60.07;;;27.50;;
8675;SDS011;4375;52.486;13.424;2024-03-02T09:57:07;57.87;;;29.97;;
8675;SDS011;4375;52.486;13.424;2024-03-02T09:59:32;62.10;;;29.90;;
8675;SDS011;4375;52.486;13.424;2024-03-02T10:01:59;55.37;;;27.27;;
8675;SDS011;4375;52.486;13.424;2024-03-02T10:04:26;56.37;;;28.80;;
8675;SDS011;4375;52.486;13.424;2024-03-02T10:07:01;56.47;;;28.23;;
8675;SDS011;4375;52.486;13.424;2024-03-02T10:09:36;52.63;;;26.70;;
8675;SDS011;4375;52.486;13.424;2024-03-02T10:12:03;52.70;;;25.80;;
8675;SDS011;4375;52.486;13.424;2024-03-02T10:14:33;54.67;;;26.70;;
8675;SDS011;4375;52.486;13.424;2024-03-02T10:17:08;52.20;;;25.17;;
8675;SDS011;4375;52.486;13.424;2024-03-02T10:19:35;51.00;;;26.10;;
8675;SDS011;4375;52.486;13.424;2024-03-02T10:22:02;52.03;;;25.73;;
8675;SDS011;4375;52.486;13.424;2024-03-02T10:24:48;51.97;;;24.20;;
8675;SDS011;4375;52.486;13.424;2024-03-02T10:27:15;49.83;;;24.70;;
8675;SDS011;4375;52.486;13.424;2024-03-02T10:29:41;48.53;;;24.47;;
8675;SDS011;4375;52.486;13.424;2024-03-02T10:32:10;50.00;;;25.20;;
8675;SDS011;4375;52.486;13.424;2024-03-02T10:34:36;50.20;;;23.00;;
8675;SDS011;4375;52.486;13.424;2024-03-02T10:37:05;45.57;;;21.53;;
8675;SDS011;4375;52.486;13.424;2024-03-02T10:39:31;47.07;;;23.27;;
8675;SDS011;4375;52.486;13.424;2024-03-02T10:41:57;49.47;;;22.43;;
8675;SDS011;4375;52.486;13.424;2024-03-02T10:44:23;48.20;;;22.30;;
8675;SDS011;4375;52.486;13.424;2024-03-02T10:46:51;44.30;;;21.93;;
8675;SDS011;4375;52.486;13.424;2024-03-02T10:49:19;49.10;;;23.60;;
8675;SDS011;4375;52.486;13.424;2024-03-02T10:51:45;43.03;;;21.23;;
8675;SDS011;4375;52.486;13.424;2024-03-02T10:54:11;46.63;;;19.50;;
8675;SDS011;4375;52.486;13.424;2024-03-02T10:56:40;41.33;;;20.40;;
8675;SDS011;4375;52.486;13.424;2024-03-02T10:59:16;44.63;;;19.83;;
8675;SDS011;4375;52.486;13.424;2024-03-02T11:01:49;46.40;;;20.17;;
8675;SDS011;4375;52.486;13.424;2024-03-02T11:04:16;42.30;;;21.20;;
8675;SDS011;4375;52.486;13.424;2024-03-02T11:06:49;41.17;;;20.53;;
8675;SDS011;4375;52.486;13.424;2024-03-02T11:09:20;42.97;;;19.87;;
8675;SDS011;4375;52.486;13.424;2024-03-02T11:12:12;44.30;;;19.53;;
8675;SDS011;4375;52.486;13.424;2024-03-02T11:14:54;44.43;;;20.20;;
8675;SDS011;4375;52.486;13.424;2024-03-02T11:17:21;40.73;;;20.00;;
8675;SDS011;4375;52.486;13.424;2024-03-02T11:19:47;47.50;;;21.73;;
8675;SDS011;4375;52.486;13.424;2024-03-02T11:22:14;46.60;;;21.77;;
8675;SDS011;4375;52.486;13.424;2024-03-02T11:24:50;46.73;;;22.93;;
8675;SDS011;4375;52.486;13.424;2024-03-02T11:33:01;43.60;;;20.70;;
8675;SDS011;4375;52.486;13.424;2024-03-02T11:35:35;48.27;;;20.83;;
8675;SDS011;4375;52.486;13.424;2024-03-02T11:38:04;40.87;;;19.73;;
8675;SDS011;4375;52.486;13.424;2024-03-02T11:40:32;43.57;;;21.13;;
8675;SDS011;4375;52.486;13.424;2024-03-02T11:42:59;40.10;;;20.57;;
8675;SDS011;4375;52.486;13.424;2024-03-02T11:45:28;42.63;;;20.70;;
8675;SDS011;4375;52.486;13.424;2024-03-02T11:47:55;40.77;;;19.87;;
8675;SDS011;4375;52.486;13.424;2024-03-02T11:50:36;42.00;;;20.00;;
8675;SDS011;4375;52.486;13.424;2024-03-02T11:53:11;40.63;;;19.20;;
8675;SDS011;4375;52.486;13.424;2024-03-02T11:55:38;41.77;;;17.87;;
8675;SDS011;4375;52.486;13.424;2024-03-02T11:58:05;39.37;;;19.37;;
8675;SDS011;4375;52.486;13.424;2024-03-02T12:00:32;44.37;;;18.97;;
8675;SDS011;4375;52.486;13.424;2024-03-02T12:03:01;44.87;;;20.10;;
8675;SDS011;4375;52.486;13.424;2024-03-02T12:05:29;39.80;;;19.13;;
8675;SDS011;4375;52.486;13.424;2024-03-02T12:07:56;44.00;;;20.50;;
8675;SDS011;4375;52.486;13.424;2024-03-02T12:10:22;42.80;;;18.70;;
8675;SDS011;4375;52.486;13.424;2024-03-02T12:12:54;44.40;;;20.80;;
8675;SDS011;4375;52.486;13.424;2024-03-02T12:15:22;42.43;;;18.90;;
8675;SDS011;4375;52.486;13.424;2024-03-02T12:17:58;40.37;;;19.23;;
8675;SDS011;4375;52.486;13.424;2024-03-02T12:20:25;40.70;;;18.77;;
8675;SDS011;4375;52.486;13.424;2024-03-02T12:22:53;49.07;;;20.73;;
8675;SDS011;4375;52.486;13.424;2024-03-02T12:25:19;43.20;;;20.20;;
8675;SDS011;4375;52.486;13.424;2024-03-02T12:27:46;40.67;;;18.20;;
8675;SDS011;4375;52.486;13.424;2024-03-02T12:30:14;43.83;;;20.10;;
8675;SDS011;4375;52.486;13.424;2024-03-02T12:32:41;40.70;;;17.57;;
8675;SDS011;4375;52.486;13.424;2024-03-02T12:35:07;41.57;;;17.90;;
8675;SDS011;4375;52.486;13.424;2024-03-02T12:37:33;46.10;;;17.57;;
8675;SDS011;4375;52.486;13.424;2024-03-02T12:40:06;41.13;;;19.73;;
8675;SDS011;4375;52.486;13.424;2024-03-02T12:42:34;40.03;;;18.00;;
8675;SDS011;4375;52.486;13.424;2024-03-02T12:45:02;44.17;;;20.17;;
8675;SDS011;4375;52.486;13.424;2024-03-02T12:47:28;40.50;;;19.03;;
8675;SDS011;4375;52.486;13.424;2024-03-02T12:49:54;41.73;;;18.53;;
8675;SDS011;4375;52.486;13.424;2024-03-02T12:52:23;45.57;;;19.33;;
8675;SDS011;4375;52.486;13.424;2024-03-02T12:54:49;40.37;;;19.50;;
8675;SDS011;4375;52.486;13.424;2024-03-02T12:57:18;39.30;;;19.57;;
8675;SDS011;4375;52.486;13.424;2024-03-02T12:59:47;41.77;;;20.20;;
8675;SDS011;4375;52.486;13.424;2024-03-02T13:02:19;39.73;;;18.57;;
8675;SDS011;4375;52.486;13.424;2024-03-02T13:04:52;43.03;;;20.07;;
8675;SDS011;4375;52.486;13.424;2024-03-02T13:10:36;38.50;;;18.37;;
8675;SDS011;4375;52.486;13.424;2024-03-02T13:13:08;36.33;;;17.00;;
8675;SDS011;4375;52.486;13.424;2024-03-02T13:15:49;37.17;;;18.00;;
8675;SDS011;4375;52.486;13.424;2024-03-02T13:21:31;37.37;;;17.60;;
8675;SDS011;4375;52.486;13.424;2024-03-02T13:24:11;37.60;;;17.97;;
8675;SDS011;4375;52.486;13.424;2024-03-02T13:27:03;36.13;;;17.43;;
8675;SDS011;4375;52.486;13.424;2024-03-02T13:29:29;40.70;;;18.90;;
8675;SDS011;4375;52.486;13.424;2024-03-02T13:31:57;36.07;;;16.00;;
8675;SDS011;4375;52.486;13.424;2024-03-02T13:34:23;37.00;;;16.53;;
8675;SDS011;4375;52.486;13.424;2024-03-02T13:36:51;38.07;;;17.20;;
8675;SDS011;4375;52.486;13.424;2024-03-02T13:39:17;35.87;;;15.90;;
8675;SDS011;4375;52.486;13.424;2024-03-02T13:41:42;37.37;;;17.77;;
8675;SDS011;4375;52.486;13.424;2024-03-02T13:44:16;38.60;;;15.87;;
8675;SDS011;4375;52.486;13.424;2024-03-02T13:46:42;40.63;;;15.63;;
8675;SDS011;4375;52.486;13.424;2024-03-02T13:49:10;34.67;;;15.43;;
8675;SDS011;4375;52.486;13.424;2024-03-02T13:51:36;33.93;;;15.03;;
8675;SDS011;4375;52.486;13.424;2024-03-02T13:54:02;40.80;;;18.93;;
8675;SDS011;4375;52.486;13.424;2024-03-02T13:56:28;37.60;;;16.43;;
8675;SDS011;4375;52.486;13.424;2024-03-02T13:58:54;35.57;;;16.07;;
8675;SDS011;4375;52.486;13.424;2024-03-02T14:01:20;36.90;;;18.10;;
8675;SDS011;4375;52.486;13.424;2024-03-02T14:03:46;36.07;;;15.47;;
8675;SDS011;4375;52.486;13.424;2024-03-02T14:06:12;36.33;;;15.80;;
8675;SDS011;4375;52.486;13.424;2024-03-02T14:08:38;36.70;;;16.13;;
8675;SDS011;4375;52.486;13.424;2024-03-02T14:11:03;34.70;;;15.83;;
8675;SDS011;4375;52.486;13.424;2024-03-02T14:13:29;34.10;;;15.03;;
8675;SDS011;4375;52.486;13.424;2024-03-02T14:18:24;34.20;;;14.73;;
8675;SDS011;4375;52.486;13.424;2024-03-02T14:20:49;32.10;;;12.97;;
8675;SDS011;4375;52.486;13.424;2024-03-02T14:23:18;31.50;;;13.00;;
8675;SDS011;4375;52.486;13.424;2024-03-02T14:25:52;30.60;;;12.93;;
8675;SDS011;4375;52.486;13.424;2024-03-02T14:28:20;33.00;;;13.33;;
8675;SDS011;4375;52.486;13.424;2024-03-02T14:31:01;37.70;;;14.40;;
8675;SDS011;4375;52.486;13.424;2024-03-02T14:33:49;38.07;;;15.20;;
8675;SDS011;4375;52.486;13.424;2024-03-02T14:36:29;29.77;;;12.90;;
8675;SDS011;4375;52.486;13.424;2024-03-02T14:39:01;34.63;;;15.23;;
8675;SDS011;4375;52.486;13.424;2024-03-02T14:41:42;35.93;;;14.07;;
8675;SDS011;4375;52.486;13.424;2024-03-02T14:44:15;30.40;;;13.97;;
8675;SDS011;4375;52.486;13.424;2024-03-02T14:46:42;30.47;;;12.80;;
8675;SDS011;4375;52.486;13.424;2024-03-02T14:49:14;31.57;;;14.13;;
8675;SDS011;4375;52.486;13.424;2024-03-02T14:52:07;37.57;;;14.60;;
8675;SDS011;4375;52.486;13.424;2024-03-02T14:57:35;33.20;;;12.90;;
8675;SDS011;4375;52.486;13.424;2024-03-02T15:00:14;34.07;;;14.77;;
8675;SDS011;4375;52.486;13.424;2024-03-02T15:05:38;39.63;;;14.43;;
8675;SDS011;4375;52.486;13.424;2024-03-02T15:11:19;32.67;;;12.90;;
8675;SDS011;4375;52.486;13.424;2024-03-02T15:13:50;33.00;;;11.67;;
8675;SDS011;4375;52.486;13.424;2024-03-02T15:16:21;33.50;;;12.33;;
8675;SDS011;4375;52.486;13.424;2024-03-02T15:19:01;31.93;;;12.90;;
8675;SDS011;4375;52.486;13.424;2024-03-02T15:21:44;30.87;;;12.53;;
8675;SDS011;4375;52.486;13.424;2024-03-02T15:24:21;29.03;;;11.40;;
8675;SDS011;4375;52.486;13.424;2024-03-02T15:26:54;33.10;;;12.80;;
8675;SDS011;4375;52.486;13.424;2024-03-02T15:29:32;31.70;;;13.30;;
8675;SDS011;4375;52.486;13.424;2024-03-02T15:32:18;32.70;;;12.80;;
8675;SDS011;4375;52.486;13.424;2024-03-02T15:35:17;33.50;;;14.20;;
8675;SDS011;4375;52.486;13.424;2024-03-02T15:37:53;33.67;;;13.13;;